Time,TemperatureF,DewpointF,PressureIn,WindDirection,WindDirectionDegrees,WindSpeedMPH,WindSpeedGustMPH,Humidity,HourlyPrecipIn,Conditions,Clouds,dailyrainin,SoftwareType,DateUTC
2013-01-23 00:00:00,50.4,46.1,30.27,ENE,63,0.0,0.0,85,0.00,,,0.00,VWS V14.01,2013-01-23 06:00:00,
2013-01-23 00:03:00,51.3,46.3,30.26,ENE,73,0.0,0.0,83,0.00,,,0.00,VWS V14.01,2013-01-23 06:03:00,
2013-01-23 00:05:00,50.5,46.5,30.26,ENE,63,0.0,0.0,86,0.00,,,0.00,VWS V14.01,2013-01-23 06:05:00,
2013-01-23 00:08:00,50.9,46.2,30.26,ENE,73,0.0,0.0,84,0.00,,,0.00,VWS V14.01,2013-01-23 06:08:00,
2013-01-23 00:10:00,50.8,46.8,30.26,ENE,63,0.0,1.0,86,0.00,,,0.00,VWS V14.01,2013-01-23 06:10:00,
2013-01-23 00:13:00,50.8,46.5,30.26,ENE,73,0.0,0.0,85,0.00,,,0.00,VWS V14.01,2013-01-23 06:13:00,
2013-01-23 00:15:00,50.6,46.3,30.26,ENE,63,0.0,1.0,85,0.00,,,0.00,VWS V14.01,2013-01-23 06:15:00,
2013-01-23 00:18:00,50.7,46.4,30.26,ENE,72,0.0,0.0,85,0.00,,,0.00,VWS V14.01,2013-01-23 06:18:00,
2013-01-23 00:20:00,49.9,45.3,30.26,ENE,63,0.0,0.0,84,0.00,,,0.00,VWS V14.01,2013-01-23 06:20:00,
2013-01-23 00:23:00,50.9,46.6,30.26,ENE,63,0.0,0.0,85,0.00,,,0.00,VWS V14.01,2013-01-23 06:23:00,
2013-01-23 00:25:00,49.6,45.6,30.26,ENE,63,0.0,0.0,86,0.00,,,0.00,VWS V14.01,2013-01-23 06:25:00,
2013-01-23 00:28:00,50.9,46.6,30.26,ENE,63,0.0,0.0,85,0.00,,,0.00,VWS V14.01,2013-01-23 06:28:00,
2013-01-23 00:30:00,49.1,45.1,30.26,ENE,63,0.0,0.0,86,0.00,,,0.00,VWS V14.01,2013-01-23 06:30:00,
2013-01-23 00:33:00,50.8,46.5,30.27,ENE,63,0.0,0.0,85,0.00,,,0.00,VWS V14.01,2013-01-23 06:33:00,
2013-01-23 00:35:00,49.1,45.4,30.26,ENE,63,0.0,0.0,87,0.00,,,0.00,VWS V14.01,2013-01-23 06:35:00,
2013-01-23 00:38:00,50.8,46.5,30.26,ENE,63,0.0,0.0,85,0.00,,,0.00,VWS V14.01,2013-01-23 06:38:00,
2013-01-23 00:40:00,49.3,45.6,30.26,ENE,63,0.0,0.0,87,0.00,,,0.00,VWS V14.01,2013-01-23 06:40:00,
2013-01-23 00:43:00,50.7,46.4,30.26,ENE,63,0.0,0.0,85,0.00,,,0.00,VWS V14.01,2013-01-23 06:43:00,
2013-01-23 00:45:00,49.1,45.4,30.26,ENE,63,0.0,0.0,87,0.00,,,0.00,VWS V14.01,2013-01-23 06:45:00,
2013-01-23 00:48:00,50.6,46.3,30.27,ENE,63,0.0,0.0,85,0.00,,,0.00,VWS V14.01,2013-01-23 06:48:00,
2013-01-23 00:50:00,48.5,44.5,30.26,ENE,63,0.0,0.0,86,0.00,,,0.00,VWS V14.01,2013-01-23 06:50:00,
2013-01-23 00:53:00,50.6,46.3,30.27,ENE,63,0.0,0.0,85,0.00,,,0.00,VWS V14.01,2013-01-23 06:53:00,
2013-01-23 00:55:00,47.9,44.2,30.26,ENE,63,0.0,0.0,87,0.00,,,0.00,VWS V14.01,2013-01-23 06:55:00,
2013-01-23 00:58:00,50.4,46.1,30.26,ENE,63,0.0,0.0,85,0.00,,,0.00,VWS V14.01,2013-01-23 06:58:00,
2013-01-23 01:00:00,47.5,43.8,30.26,ENE,63,0.0,0.0,87,0.00,,,0.00,VWS V14.01,2013-01-23 07:00:00,
2013-01-23 01:03:00,50.4,46.4,30.27,ENE,63,0.0,0.0,86,0.00,,,0.00,VWS V14.01,2013-01-23 07:03:00,
2013-01-23 01:05:00,47.2,43.8,30.26,ENE,63,0.0,0.0,88,0.00,,,0.00,VWS V14.01,2013-01-23 07:05:00,
2013-01-23 01:08:00,50.6,46.6,30.26,ENE,63,0.0,0.0,86,0.00,,,0.00,VWS V14.01,2013-01-23 07:08:00,
2013-01-23 01:10:00,47.1,43.7,30.26,ENE,63,0.0,0.0,88,0.00,,,0.00,VWS V14.01,2013-01-23 07:10:00,
2013-01-23 01:13:00,50.7,46.4,30.26,ENE,63,0.0,1.0,85,0.00,,,0.00,VWS V14.01,2013-01-23 07:13:00,
2013-01-23 01:15:00,46.7,43.3,30.26,ENE,63,0.0,0.0,88,0.00,,,0.00,VWS V14.01,2013-01-23 07:15:00,
2013-01-23 01:18:00,50.1,45.5,30.26,ENE,63,0.0,0.0,84,0.00,,,0.00,VWS V14.01,2013-01-23 07:18:00,
2013-01-23 01:20:00,46.3,43.0,30.26,ENE,63,0.0,0.0,88,0.00,,,0.00,VWS V14.01,2013-01-23 07:20:00,
2013-01-23 01:23:00,49.7,45.4,30.26,ENE,63,0.0,0.0,85,0.00,,,0.00,VWS V14.01,2013-01-23 07:23:00,
2013-01-23 01:25:00,46.6,43.8,30.26,ENE,63,0.0,0.0,90,0.00,,,0.00,VWS V14.01,2013-01-23 07:25:00,
2013-01-23 01:28:00,49.4,45.4,30.26,ENE,63,0.0,0.0,86,0.00,,,0.00,VWS V14.01,2013-01-23 07:28:00,
2013-01-23 01:30:00,47.1,44.3,30.26,ENE,63,0.0,0.0,90,0.00,,,0.00,VWS V14.01,2013-01-23 07:30:00,
2013-01-23 01:33:00,49.0,45.3,30.26,ENE,63,0.0,0.0,87,0.00,,,0.00,VWS V14.01,2013-01-23 07:33:00,
2013-01-23 01:35:00,47.2,44.4,30.26,ENE,63,0.0,0.0,90,0.00,,,0.00,VWS V14.01,2013-01-23 07:35:00,
2013-01-23 01:38:00,49.3,45.9,30.26,ENE,63,0.0,0.0,88,0.00,,,0.00,VWS V14.01,2013-01-23 07:38:00,
2013-01-23 01:40:00,47.3,44.5,30.26,ENE,63,0.0,0.0,90,0.00,,,0.00,VWS V14.01,2013-01-23 07:40:00,
2013-01-23 01:43:00,49.2,45.5,30.26,ENE,63,0.0,0.0,87,0.00,,,0.00,VWS V14.01,2013-01-23 07:43:00,
2013-01-23 01:45:00,47.4,44.6,30.26,ENE,63,0.0,0.0,90,0.00,,,0.00,VWS V14.01,2013-01-23 07:45:00,
2013-01-23 01:48:00,48.8,44.8,30.26,ENE,63,0.0,0.0,86,0.00,,,0.00,VWS V14.01,2013-01-23 07:48:00,
2013-01-23 01:50:00,47.3,44.5,30.27,ENE,63,0.0,0.0,90,0.00,,,0.00,VWS V14.01,2013-01-23 07:50:00,
2013-01-23 01:53:00,48.1,44.1,30.26,ENE,63,0.0,0.0,86,0.00,,,0.00,VWS V14.01,2013-01-23 07:53:00,
2013-01-23 01:55:00,47.3,44.5,30.26,ENE,63,0.0,1.0,90,0.00,,,0.00,VWS V14.01,2013-01-23 07:55:00,
2013-01-23 01:58:00,47.7,44.0,30.26,ENE,63,0.0,0.0,87,0.00,,,0.00,VWS V14.01,2013-01-23 07:58:00,
2013-01-23 02:00:00,46.1,42.8,30.26,ENE,63,0.0,0.0,88,0.00,,,0.00,VWS V14.01,2013-01-23 08:00:00,
2013-01-23 02:03:00,47.3,43.6,30.26,ENE,63,0.0,0.0,87,0.00,,,0.00,VWS V14.01,2013-01-23 08:03:00,
2013-01-23 02:05:00,45.8,43.0,30.26,ENE,63,0.0,0.0,90,0.00,,,0.00,VWS V14.01,2013-01-23 08:05:00,
2013-01-23 02:08:00,47.1,43.7,30.26,ENE,63,0.0,0.0,88,0.00,,,0.00,VWS V14.01,2013-01-23 08:08:00,
2013-01-23 02:10:00,46.4,43.6,30.27,ENE,63,0.0,0.0,90,0.00,,,0.00,VWS V14.01,2013-01-23 08:10:00,
2013-01-23 02:13:00,46.9,43.5,30.26,ENE,63,0.0,0.0,88,0.00,,,0.00,VWS V14.01,2013-01-23 08:13:00,
2013-01-23 02:15:00,46.4,43.6,30.26,ENE,63,0.0,0.0,90,0.00,,,0.00,VWS V14.01,2013-01-23 08:15:00,
2013-01-23 02:18:00,46.5,43.1,30.26,ENE,63,0.0,0.0,88,0.00,,,0.00,VWS V14.01,2013-01-23 08:18:00,
2013-01-23 02:20:00,46.1,43.3,30.26,ENE,63,0.0,0.0,90,0.00,,,0.00,VWS V14.01,2013-01-23 08:20:00,
2013-01-23 02:23:00,46.4,43.3,30.26,ENE,63,0.0,0.0,89,0.00,,,0.00,VWS V14.01,2013-01-23 08:23:00,
2013-01-23 02:25:00,46.0,43.2,30.26,ENE,63,0.0,0.0,90,0.00,,,0.00,VWS V14.01,2013-01-23 08:25:00,
2013-01-23 02:28:00,47.0,44.2,30.26,ENE,63,0.0,0.0,90,0.00,,,0.00,VWS V14.01,2013-01-23 08:28:00,
2013-01-23 02:30:00,46.3,43.8,30.26,ENE,63,0.0,0.0,91,0.00,,,0.00,VWS V14.01,2013-01-23 08:30:00,
2013-01-23 02:33:00,47.3,44.5,30.26,ENE,63,0.0,0.0,90,0.00,,,0.00,VWS V14.01,2013-01-23 08:33:00,
2013-01-23 02:35:00,46.6,44.1,30.26,ENE,63,0.0,0.0,91,0.00,,,0.00,VWS V14.01,2013-01-23 08:35:00,
2013-01-23 02:38:00,47.2,44.4,30.26,ENE,63,0.0,0.0,90,0.00,,,0.00,VWS V14.01,2013-01-23 08:38:00,
2013-01-23 02:40:00,46.7,44.2,30.26,ENE,63,0.0,0.0,91,0.00,,,0.00,VWS V14.01,2013-01-23 08:40:00,
2013-01-23 02:43:00,47.4,44.6,30.26,ENE,63,0.0,0.0,90,0.00,,,0.00,VWS V14.01,2013-01-23 08:43:00,
2013-01-23 02:45:00,47.0,44.5,30.26,ENE,63,0.0,0.0,91,0.00,,,0.00,VWS V14.01,2013-01-23 08:45:00,
2013-01-23 02:48:00,47.3,44.5,30.26,ENE,63,0.0,0.0,90,0.00,,,0.00,VWS V14.01,2013-01-23 08:48:00,
2013-01-23 02:50:00,47.3,44.8,30.26,ENE,63,0.0,0.0,91,0.00,,,0.00,VWS V14.01,2013-01-23 08:50:00,
2013-01-23 02:53:00,47.2,44.1,30.27,ENE,63,0.0,1.0,89,0.00,,,0.00,VWS V14.01,2013-01-23 08:53:00,
2013-01-23 02:55:00,47.3,44.8,30.26,ENE,63,0.0,0.0,91,0.00,,,0.00,VWS V14.01,2013-01-23 08:55:00,
2013-01-23 02:58:00,46.8,43.7,30.26,ENE,63,0.0,0.0,89,0.00,,,0.00,VWS V14.01,2013-01-23 08:58:00,
2013-01-23 03:00:00,47.4,44.9,30.26,ENE,63,0.0,0.0,91,0.00,,,0.00,VWS V14.01,2013-01-23 09:00:00,
2013-01-23 03:03:00,45.6,42.5,30.26,ENE,63,0.0,0.0,89,0.00,,,0.00,VWS V14.01,2013-01-23 09:03:00,
2013-01-23 03:05:00,47.5,45.0,30.26,ENE,63,0.0,0.0,91,0.00,,,0.00,VWS V14.01,2013-01-23 09:05:00,
2013-01-23 03:08:00,46.2,43.7,30.26,ENE,63,0.0,0.0,91,0.00,,,0.00,VWS V14.01,2013-01-23 09:08:00,
2013-01-23 03:10:00,47.5,45.0,30.26,ENE,63,0.0,0.0,91,0.00,,,0.00,VWS V14.01,2013-01-23 09:10:00,
2013-01-23 03:13:00,46.5,43.7,30.26,ENE,63,0.0,0.0,90,0.00,,,0.00,VWS V14.01,2013-01-23 09:13:00,
2013-01-23 03:15:00,47.6,45.1,30.25,ENE,63,0.0,0.0,91,0.00,,,0.00,VWS V14.01,2013-01-23 09:15:00,
2013-01-23 03:18:00,46.1,43.3,30.26,ENE,63,0.0,0.0,90,0.00,,,0.00,VWS V14.01,2013-01-23 09:18:00,
2013-01-23 03:20:00,47.6,45.1,30.25,ENE,64,0.0,0.0,91,0.00,,,0.00,VWS V14.01,2013-01-23 09:20:00,
2013-01-23 03:23:00,46.0,43.2,30.26,ENE,63,0.0,0.0,90,0.00,,,0.00,VWS V14.01,2013-01-23 09:23:00,
2013-01-23 03:25:00,47.7,45.2,30.25,ENE,64,0.0,0.0,91,0.00,,,0.00,VWS V14.01,2013-01-23 09:25:00,
2013-01-23 03:28:00,46.1,43.6,30.26,ENE,63,0.0,0.0,91,0.00,,,0.00,VWS V14.01,2013-01-23 09:28:00,
2013-01-23 03:30:00,48.0,45.8,30.25,ENE,64,0.0,0.0,92,0.00,,,0.00,VWS V14.01,2013-01-23 09:30:00,
2013-01-23 03:33:00,46.5,44.0,30.26,ENE,63,0.0,0.0,91,0.00,,,0.00,VWS V14.01,2013-01-23 09:33:00,
2013-01-23 03:35:00,48.3,46.1,30.25,ENE,64,0.0,0.0,92,0.00,,,0.00,VWS V14.01,2013-01-23 09:35:00,
2013-01-23 03:38:00,46.6,44.1,30.26,ENE,63,0.0,0.0,91,0.00,,,0.00,VWS V14.01,2013-01-23 09:38:00,
2013-01-23 03:40:00,48.4,45.9,30.25,ENE,64,0.0,0.0,91,0.00,,,0.00,VWS V14.01,2013-01-23 09:40:00,
2013-01-23 03:43:00,46.9,44.4,30.26,ENE,63,0.0,0.0,91,0.00,,,0.00,VWS V14.01,2013-01-23 09:43:00,
2013-01-23 03:45:00,48.3,45.8,30.25,ENE,64,0.0,0.0,91,0.00,,,0.00,VWS V14.01,2013-01-23 09:45:00,
2013-01-23 03:48:00,47.3,45.1,30.26,ENE,63,0.0,0.0,92,0.00,,,0.00,VWS V14.01,2013-01-23 09:48:00,
2013-01-23 03:50:00,48.2,45.7,30.25,ENE,64,0.0,0.0,91,0.00,,,0.00,VWS V14.01,2013-01-23 09:50:00,
2013-01-23 03:53:00,47.4,44.9,30.26,ENE,63,0.0,0.0,91,0.00,,,0.00,VWS V14.01,2013-01-23 09:53:00,
2013-01-23 03:55:00,48.2,45.7,30.26,ENE,64,0.0,0.0,91,0.00,,,0.00,VWS V14.01,2013-01-23 09:55:00,
2013-01-23 03:58:00,47.3,44.8,30.26,ENE,63,0.0,0.0,91,0.00,,,0.00,VWS V14.01,2013-01-23 09:58:00,
2013-01-23 04:00:00,48.2,46.0,30.26,ENE,64,0.0,0.0,92,0.00,,,0.00,VWS V14.01,2013-01-23 10:00:00,
2013-01-23 04:03:00,47.5,45.0,30.26,ENE,63,0.0,0.0,91,0.00,,,0.00,VWS V14.01,2013-01-23 10:03:00,
2013-01-23 04:05:00,48.1,45.6,30.26,ENE,64,0.0,0.0,91,0.00,,,0.00,VWS V14.01,2013-01-23 10:05:00,
2013-01-23 04:08:00,47.5,45.0,30.26,ENE,63,0.0,0.0,91,0.00,,,0.00,VWS V14.01,2013-01-23 10:08:00,
2013-01-23 04:10:00,48.1,45.6,30.26,ENE,64,0.0,0.0,91,0.00,,,0.00,VWS V14.01,2013-01-23 10:10:00,
2013-01-23 04:13:00,47.5,45.0,30.26,ENE,63,0.0,0.0,91,0.00,,,0.00,VWS V14.01,2013-01-23 10:13:00,
2013-01-23 04:15:00,46.9,44.1,30.26,ENE,64,0.0,0.0,90,0.00,,,0.00,VWS V14.01,2013-01-23 10:15:00,
2013-01-23 04:18:00,47.7,45.2,30.25,ENE,63,0.0,0.0,91,0.00,,,0.00,VWS V14.01,2013-01-23 10:18:00,
2013-01-23 04:20:00,46.3,43.8,30.26,ENE,65,0.0,0.0,91,0.00,,,0.00,VWS V14.01,2013-01-23 10:20:00,
2013-01-23 04:23:00,47.5,45.0,30.25,ENE,64,0.0,0.0,91,0.00,,,0.00,VWS V14.01,2013-01-23 10:23:00,
2013-01-23 04:25:00,46.3,43.8,30.26,ENE,64,0.0,0.0,91,0.00,,,0.00,VWS V14.01,2013-01-23 10:25:00,
2013-01-23 04:28:00,47.8,45.3,30.25,ENE,64,0.0,0.0,91,0.00,,,0.00,VWS V14.01,2013-01-23 10:28:00,
2013-01-23 04:30:00,46.3,43.8,30.26,ENE,64,0.0,0.0,91,0.00,,,0.00,VWS V14.01,2013-01-23 10:30:00,
2013-01-23 04:33:00,48.1,45.9,30.25,ENE,64,0.0,0.0,92,0.00,,,0.00,VWS V14.01,2013-01-23 10:33:00,
2013-01-23 04:35:00,46.3,44.1,30.26,ENE,64,0.0,0.0,92,0.00,,,0.00,VWS V14.01,2013-01-23 10:35:00,
2013-01-23 04:38:00,48.4,46.2,30.25,ENE,64,0.0,0.0,92,0.00,,,0.00,VWS V14.01,2013-01-23 10:38:00,
2013-01-23 04:40:00,46.2,44.0,30.26,ENE,64,0.0,0.0,92,0.00,,,0.00,VWS V14.01,2013-01-23 10:40:00,
2013-01-23 04:43:00,48.4,45.9,30.25,ENE,64,0.0,0.0,91,0.00,,,0.00,VWS V14.01,2013-01-23 10:43:00,
2013-01-23 04:45:00,46.4,44.2,30.26,ENE,64,0.0,0.0,92,0.00,,,0.00,VWS V14.01,2013-01-23 10:45:00,
2013-01-23 04:48:00,48.3,45.8,30.25,ENE,64,0.0,0.0,91,0.00,,,0.00,VWS V14.01,2013-01-23 10:48:00,
2013-01-23 04:50:00,46.8,44.6,30.26,ENE,64,0.0,0.0,92,0.00,,,0.00,VWS V14.01,2013-01-23 10:50:00,
2013-01-23 04:53:00,48.2,45.7,30.26,ENE,64,0.0,0.0,91,0.00,,,0.00,VWS V14.01,2013-01-23 10:53:00,
2013-01-23 04:55:00,47.0,44.8,30.27,ENE,64,0.0,0.0,92,0.00,,,0.00,VWS V14.01,2013-01-23 10:55:00,
2013-01-23 04:58:00,48.1,45.6,30.26,ENE,64,0.0,0.0,91,0.00,,,0.00,VWS V14.01,2013-01-23 10:58:00,
2013-01-23 05:00:00,46.8,44.6,30.27,ENE,64,0.0,0.0,92,0.00,,,0.00,VWS V14.01,2013-01-23 11:00:00,
2013-01-23 05:03:00,48.2,46.0,30.26,ENE,64,0.0,0.0,92,0.00,,,0.00,VWS V14.01,2013-01-23 11:03:00,
2013-01-23 05:05:00,46.9,44.7,30.27,ENE,64,0.0,0.0,92,0.00,,,0.00,VWS V14.01,2013-01-23 11:05:00,
2013-01-23 05:08:00,48.1,45.9,30.26,ENE,64,0.0,0.0,92,0.00,,,0.00,VWS V14.01,2013-01-23 11:08:00,
2013-01-23 05:10:00,46.9,44.7,30.27,ENE,64,0.0,0.0,92,0.00,,,0.00,VWS V14.01,2013-01-23 11:10:00,
2013-01-23 05:13:00,47.5,44.7,30.26,ENE,64,0.0,0.0,90,0.00,,,0.00,VWS V14.01,2013-01-23 11:13:00,
2013-01-23 05:15:00,46.5,44.3,30.27,ENE,64,0.0,0.0,92,0.00,,,0.00,VWS V14.01,2013-01-23 11:15:00,
2013-01-23 05:18:00,46.6,44.1,30.25,ENE,64,0.0,0.0,91,0.00,,,0.00,VWS V14.01,2013-01-23 11:18:00,
2013-01-23 05:20:00,46.7,44.5,30.27,ENE,64,0.0,0.0,92,0.00,,,0.00,VWS V14.01,2013-01-23 11:20:00,
2013-01-23 05:23:00,46.3,43.8,30.26,ENE,64,0.0,0.0,91,0.00,,,0.00,VWS V14.01,2013-01-23 11:23:00,
2013-01-23 05:25:00,45.9,43.4,30.27,ENE,64,0.0,0.0,91,0.00,,,0.00,VWS V14.01,2013-01-23 11:25:00,
2013-01-23 05:28:00,46.3,43.8,30.26,ENE,64,0.0,0.0,91,0.00,,,0.00,VWS V14.01,2013-01-23 11:28:00,
2013-01-23 05:30:00,45.0,42.5,30.27,ENE,64,0.0,0.0,91,0.00,,,0.00,VWS V14.01,2013-01-23 11:30:00,
2013-01-23 05:33:00,46.3,43.8,30.26,ENE,64,0.0,0.0,91,0.00,,,0.00,VWS V14.01,2013-01-23 11:33:00,
2013-01-23 05:35:00,44.5,42.3,30.27,ENE,64,0.0,0.0,92,0.00,,,0.00,VWS V14.01,2013-01-23 11:35:00,
2013-01-23 05:38:00,46.2,44.0,30.26,ENE,64,0.0,0.0,92,0.00,,,0.00,VWS V14.01,2013-01-23 11:38:00,
2013-01-23 05:40:00,44.9,43.0,30.27,ENE,64,0.0,0.0,93,0.00,,,0.00,VWS V14.01,2013-01-23 11:40:00,
2013-01-23 05:43:00,46.3,44.1,30.26,ENE,65,0.0,0.0,92,0.00,,,0.00,VWS V14.01,2013-01-23 11:43:00,
2013-01-23 05:45:00,44.9,42.7,30.27,ENE,64,0.0,0.0,92,0.00,,,0.00,VWS V14.01,2013-01-23 11:45:00,
2013-01-23 05:48:00,46.6,44.4,30.26,ENE,64,0.0,0.0,92,0.00,,,0.00,VWS V14.01,2013-01-23 11:48:00,
2013-01-23 05:50:00,45.7,43.8,30.27,ENE,64,0.0,0.0,93,0.00,,,0.00,VWS V14.01,2013-01-23 11:50:00,
2013-01-23 05:53:00,47.0,45.1,30.26,ENE,64,0.0,0.0,93,0.00,,,0.00,VWS V14.01,2013-01-23 11:53:00,
2013-01-23 05:55:00,45.5,43.6,30.27,ENE,64,0.0,0.0,93,0.00,,,0.00,VWS V14.01,2013-01-23 11:55:00,
2013-01-23 05:58:00,46.9,44.7,30.27,ENE,65,0.0,0.0,92,0.00,,,0.00,VWS V14.01,2013-01-23 11:58:00,
2013-01-23 06:00:00,45.3,43.1,30.27,ENE,64,0.0,0.0,92,0.00,,,0.00,VWS V14.01,2013-01-23 12:00:00,
2013-01-23 06:03:00,47.0,44.8,30.27,ENE,64,0.0,0.0,92,0.00,,,0.00,VWS V14.01,2013-01-23 12:03:00,
2013-01-23 06:05:00,45.8,43.9,30.28,ENE,64,0.0,0.0,93,0.00,,,0.00,VWS V14.01,2013-01-23 12:05:00,
2013-01-23 06:08:00,47.0,44.8,30.27,ENE,64,0.0,0.0,92,0.00,,,0.00,VWS V14.01,2013-01-23 12:08:00,
2013-01-23 06:10:00,46.5,44.6,30.28,ENE,64,0.0,0.0,93,0.00,,,0.00,VWS V14.01,2013-01-23 12:10:00,
2013-01-23 06:13:00,46.6,44.4,30.27,ENE,64,0.0,0.0,92,0.00,,,0.00,VWS V14.01,2013-01-23 12:13:00,
2013-01-23 06:15:00,46.7,44.8,30.28,ENE,64,0.0,0.0,93,0.00,,,0.00,VWS V14.01,2013-01-23 12:15:00,
2013-01-23 06:18:00,46.7,44.5,30.27,ENE,64,0.0,0.0,92,0.00,,,0.00,VWS V14.01,2013-01-23 12:18:00,
2013-01-23 06:20:00,46.8,44.9,30.28,ENE,64,0.0,0.0,93,0.00,,,0.00,VWS V14.01,2013-01-23 12:20:00,
2013-01-23 06:23:00,46.2,44.0,30.27,ENE,64,0.0,0.0,92,0.00,,,0.00,VWS V14.01,2013-01-23 12:23:00,
2013-01-23 06:25:00,47.0,45.1,30.28,ENE,64,0.0,0.0,93,0.00,,,0.00,VWS V14.01,2013-01-23 12:25:00,
2013-01-23 06:28:00,45.3,42.8,30.27,ENE,64,0.0,0.0,91,0.00,,,0.00,VWS V14.01,2013-01-23 12:28:00,
2013-01-23 06:30:00,47.2,45.3,30.29,ENE,64,0.0,0.0,93,0.00,,,0.00,VWS V14.01,2013-01-23 12:30:00,
2013-01-23 06:33:00,44.6,42.1,30.27,ENE,64,0.0,0.0,91,0.00,,,0.00,VWS V14.01,2013-01-23 12:33:00,
2013-01-23 06:35:00,47.1,45.2,30.29,ENE,64,0.0,0.0,93,0.00,,,0.00,VWS V14.01,2013-01-23 12:35:00,
2013-01-23 06:38:00,44.6,42.4,30.27,ENE,64,0.0,0.0,92,0.00,,,0.00,VWS V14.01,2013-01-23 12:38:00,
2013-01-23 06:40:00,47.1,45.2,30.29,ENE,64,0.0,0.0,93,0.00,,,0.00,VWS V14.01,2013-01-23 12:40:00,
2013-01-23 06:43:00,44.9,42.7,30.27,ENE,64,0.0,0.0,92,0.00,,,0.00,VWS V14.01,2013-01-23 12:43:00,
2013-01-23 06:45:00,47.2,45.3,30.29,ENE,64,0.0,0.0,93,0.00,,,0.00,VWS V14.01,2013-01-23 12:45:00,
2013-01-23 06:48:00,45.6,43.7,30.27,ENE,64,0.0,0.0,93,0.00,,,0.00,VWS V14.01,2013-01-23 12:48:00,
2013-01-23 06:50:00,47.6,45.7,30.29,ENE,64,0.0,0.0,93,0.00,,,0.00,VWS V14.01,2013-01-23 12:50:00,
2013-01-23 06:53:00,45.5,43.6,30.27,ENE,64,0.0,0.0,93,0.00,,,0.00,VWS V14.01,2013-01-23 12:53:00,
2013-01-23 06:55:00,47.5,45.6,30.29,ENE,64,0.0,0.0,93,0.00,,,0.00,VWS V14.01,2013-01-23 12:55:00,
2013-01-23 06:58:00,45.5,43.6,30.27,ENE,64,0.0,0.0,93,0.00,,,0.00,VWS V14.01,2013-01-23 12:58:00,
2013-01-23 07:00:00,47.7,45.8,30.29,ENE,64,0.0,0.0,93,0.00,,,0.00,VWS V14.01,2013-01-23 13:00:00,
2013-01-23 07:03:00,45.8,43.9,30.28,ENE,64,0.0,0.0,93,0.00,,,0.00,VWS V14.01,2013-01-23 13:03:00,
2013-01-23 07:05:00,47.5,45.3,30.30,ENE,64,0.0,0.0,92,0.00,,,0.00,VWS V14.01,2013-01-23 13:05:00,
2013-01-23 07:08:00,46.1,44.2,30.28,ENE,64,0.0,0.0,93,0.00,,,0.00,VWS V14.01,2013-01-23 13:08:00,
2013-01-23 07:10:00,48.2,46.3,30.30,ENE,64,0.0,0.0,93,0.00,,,0.00,VWS V14.01,2013-01-23 13:10:00,
2013-01-23 07:13:00,46.7,44.8,30.28,ENE,64,0.0,0.0,93,0.00,,,0.00,VWS V14.01,2013-01-23 13:13:00,
2013-01-23 07:15:00,48.9,47.0,30.30,ENE,64,0.0,0.0,93,0.00,,,0.00,VWS V14.01,2013-01-23 13:15:00,
2013-01-23 07:18:00,46.8,44.9,30.28,ENE,64,0.0,0.0,93,0.00,,,0.00,VWS V14.01,2013-01-23 13:18:00,
2013-01-23 07:20:00,49.5,47.6,30.30,ENE,64,0.0,0.0,93,0.00,,,0.00,VWS V14.01,2013-01-23 13:20:00,
2013-01-23 07:23:00,46.9,45.0,30.28,ENE,64,0.0,0.0,93,0.00,,,0.00,VWS V14.01,2013-01-23 13:23:00,
2013-01-23 07:25:00,50.1,48.2,30.30,ENE,64,0.0,0.0,93,0.00,,,0.00,VWS V14.01,2013-01-23 13:25:00,
2013-01-23 07:28:00,47.1,45.2,30.29,ENE,64,0.0,0.0,93,0.00,,,0.00,VWS V14.01,2013-01-23 13:28:00,
2013-01-23 07:30:00,50.8,48.8,30.30,East,92,1.0,2.0,93,0.00,,,0.00,VWS V14.01,2013-01-23 13:30:00,
2013-01-23 07:33:00,47.2,45.3,30.29,ENE,64,0.0,0.0,93,0.00,,,0.00,VWS V14.01,2013-01-23 13:33:00,
2013-01-23 07:35:00,51.2,49.0,30.30,ESE,113,3.0,4.0,92,0.00,,,0.00,VWS V14.01,2013-01-23 13:35:00,
2013-01-23 07:38:00,47.0,45.1,30.29,ENE,64,0.0,0.0,93,0.00,,,0.00,VWS V14.01,2013-01-23 13:38:00,
2013-01-23 07:40:00,51.4,49.2,30.30,ESE,112,4.0,5.0,92,0.00,,,0.00,VWS V14.01,2013-01-23 13:40:00,
2013-01-23 07:43:00,47.2,45.3,30.29,ENE,64,0.0,0.0,93,0.00,,,0.00,VWS V14.01,2013-01-23 13:43:00,
2013-01-23 07:45:00,51.3,49.1,30.30,ESE,104,3.0,5.0,92,0.00,,,0.00,VWS V14.01,2013-01-23 13:45:00,
2013-01-23 07:48:00,47.4,45.5,30.29,ENE,64,0.0,0.0,93,0.00,,,0.00,VWS V14.01,2013-01-23 13:48:00,
2013-01-23 07:50:00,51.4,49.2,30.30,ESE,116,3.0,5.0,92,0.00,,,0.00,VWS V14.01,2013-01-23 13:50:00,
2013-01-23 07:53:00,47.7,45.8,30.29,ENE,64,0.0,0.0,93,0.00,,,0.00,VWS V14.01,2013-01-23 13:53:00,
2013-01-23 07:55:00,51.5,49.3,30.31,ESE,119,4.0,7.0,92,0.00,,,0.00,VWS V14.01,2013-01-23 13:55:00,
2013-01-23 07:58:00,47.5,45.6,30.29,ENE,64,0.0,0.0,93,0.00,,,0.00,VWS V14.01,2013-01-23 13:58:00,
2013-01-23 08:00:00,51.6,49.4,30.31,ESE,121,6.0,6.0,92,0.00,,,0.00,VWS V14.01,2013-01-23 14:00:00,
2013-01-23 08:03:00,47.6,45.7,30.30,ENE,64,0.0,0.0,93,0.00,,,0.00,VWS V14.01,2013-01-23 14:03:00,
2013-01-23 08:05:00,51.8,49.6,30.31,ESE,112,4.0,6.0,92,0.00,,,0.00,VWS V14.01,2013-01-23 14:05:00,
2013-01-23 08:08:00,47.8,45.9,30.30,ENE,64,0.0,0.0,93,0.00,,,0.00,VWS V14.01,2013-01-23 14:08:00,
2013-01-23 08:10:00,52.2,50.0,30.31,East,95,4.0,7.0,92,0.00,,,0.00,VWS V14.01,2013-01-23 14:10:00,
2013-01-23 08:13:00,48.6,46.7,30.30,ENE,64,0.0,0.0,93,0.00,,,0.00,VWS V14.01,2013-01-23 14:13:00,
2013-01-23 08:15:00,52.3,50.0,30.31,ESE,107,4.0,7.0,92,0.00,,,0.00,VWS V14.01,2013-01-23 14:15:00,
2013-01-23 08:18:00,49.2,47.3,30.30,ENE,64,0.0,0.0,93,0.00,,,0.00,VWS V14.01,2013-01-23 14:18:00,
2013-01-23 08:20:00,52.4,50.2,30.31,East,99,5.0,7.0,92,0.00,,,0.00,VWS V14.01,2013-01-23 14:20:00,
2013-01-23 08:23:00,49.8,47.9,30.30,ENE,64,0.0,0.0,93,0.00,,,0.00,VWS V14.01,2013-01-23 14:23:00,
2013-01-23 08:25:00,52.7,50.5,30.32,ESE,111,4.0,6.0,92,0.00,,,0.00,VWS V14.01,2013-01-23 14:25:00,
2013-01-23 08:28:00,50.5,48.6,30.30,ENE,69,1.0,2.0,93,0.00,,,0.00,VWS V14.01,2013-01-23 14:28:00,
2013-01-23 08:30:00,52.9,50.6,30.32,SE,129,3.0,6.0,92,0.00,,,0.00,VWS V14.01,2013-01-23 14:30:00,
2013-01-23 08:33:00,51.1,49.2,30.30,SE,127,2.0,4.0,93,0.00,,,0.00,VWS V14.01,2013-01-23 14:33:00,
2013-01-23 08:35:00,53.4,50.8,30.32,ESE,120,5.0,7.0,91,0.00,,,0.00,VWS V14.01,2013-01-23 14:35:00,
2013-01-23 08:38:00,51.4,49.2,30.30,SE,139,3.0,4.0,92,0.00,,,0.00,VWS V14.01,2013-01-23 14:38:00,
2013-01-23 08:40:00,53.9,51.3,30.31,ESE,123,7.0,7.0,91,0.00,,,0.00,VWS V14.01,2013-01-23 14:40:00,
2013-01-23 08:43:00,51.3,49.1,30.30,ESE,123,5.0,5.0,92,0.00,,,0.00,VWS V14.01,2013-01-23 14:43:00,
2013-01-23 08:45:00,54.2,51.3,30.32,ESE,120,6.0,7.0,90,0.00,,,0.00,VWS V14.01,2013-01-23 14:45:00,
2013-01-23 08:48:00,51.4,49.2,30.30,ESE,119,3.0,5.0,92,0.00,,,0.00,VWS V14.01,2013-01-23 14:48:00,
2013-01-23 08:50:00,54.7,51.8,30.32,ESE,107,6.0,6.0,90,0.00,,,0.00,VWS V14.01,2013-01-23 14:50:00,
2013-01-23 08:53:00,51.5,49.3,30.30,ESE,122,5.0,5.0,92,0.00,,,0.00,VWS V14.01,2013-01-23 14:53:00,
2013-01-23 08:55:00,55.4,52.2,30.32,East,82,5.0,6.0,89,0.00,,,0.00,VWS V14.01,2013-01-23 14:55:00,
2013-01-23 08:58:00,51.5,49.3,30.31,ESE,111,4.0,6.0,92,0.00,,,0.00,VWS V14.01,2013-01-23 14:58:00,
2013-01-23 09:00:00,55.9,52.4,30.32,East,95,4.0,6.0,88,0.00,,,0.00,VWS V14.01,2013-01-23 15:00:00,
2013-01-23 09:03:00,51.7,49.5,30.31,East,92,3.0,6.0,92,0.00,,,0.00,VWS V14.01,2013-01-23 15:03:00,
2013-01-23 09:05:00,56.5,52.7,30.32,East,87,5.0,6.0,87,0.00,,,0.00,VWS V14.01,2013-01-23 15:05:00,
2013-01-23 09:08:00,52.0,49.8,30.31,SE,139,4.0,5.0,92,0.00,,,0.00,VWS V14.01,2013-01-23 15:08:00,
2013-01-23 09:10:00,56.8,52.7,30.32,East,90,2.0,6.0,86,0.00,,,0.00,VWS V14.01,2013-01-23 15:10:00,
2013-01-23 09:13:00,52.2,50.0,30.31,ESE,109,4.0,6.0,92,0.00,,,0.00,VWS V14.01,2013-01-23 15:13:00,
2013-01-23 09:15:00,57.5,53.0,30.33,ESE,106,3.0,7.0,85,0.00,,,0.00,VWS V14.01,2013-01-23 15:15:00,
2013-01-23 09:18:00,52.4,50.2,30.31,SE,130,5.0,6.0,92,0.00,,,0.00,VWS V14.01,2013-01-23 15:18:00,
2013-01-23 09:20:00,57.9,53.4,30.32,ESE,113,3.0,8.0,85,0.00,,,0.00,VWS V14.01,2013-01-23 15:20:00,
2013-01-23 09:23:00,52.6,50.3,30.31,ESE,118,5.0,6.0,92,0.00,,,0.00,VWS V14.01,2013-01-23 15:23:00,
2013-01-23 09:25:00,58.7,53.6,30.32,ESE,120,6.0,9.0,83,0.00,,,0.00,VWS V14.01,2013-01-23 15:25:00,
2013-01-23 09:28:00,52.8,50.5,30.32,ESE,114,4.0,6.0,92,0.00,,,0.00,VWS V14.01,2013-01-23 15:28:00,
2013-01-23 09:30:00,59.0,53.5,30.32,South,178,3.0,8.0,82,0.00,,,0.00,VWS V14.01,2013-01-23 15:30:00,
2013-01-23 09:33:00,53.2,50.7,30.32,East,101,3.0,5.0,91,0.00,,,0.00,VWS V14.01,2013-01-23 15:33:00,
2013-01-23 09:35:00,59.5,53.7,30.32,ESE,119,3.0,7.0,81,0.00,,,0.00,VWS V14.01,2013-01-23 15:35:00,
2013-01-23 09:37:00,53.8,51.2,30.32,ESE,111,6.0,7.0,91,0.00,,,0.00,VWS V14.01,2013-01-23 15:37:00,
2013-01-23 09:40:00,60.0,54.2,30.32,ESE,123,4.0,7.0,81,0.00,,,0.00,VWS V14.01,2013-01-23 15:40:00,
2013-01-23 09:42:00,54.0,51.4,30.32,ESE,109,5.0,7.0,91,0.00,,,0.00,VWS V14.01,2013-01-23 15:42:00,
2013-01-23 09:45:00,60.5,54.3,30.32,ESE,109,5.0,7.0,80,0.00,,,0.00,VWS V14.01,2013-01-23 15:45:00,
2013-01-23 09:47:00,54.4,51.5,30.32,ESE,116,5.0,6.0,90,0.00,,,0.00,VWS V14.01,2013-01-23 15:47:00,
2013-01-23 09:50:00,61.2,54.6,30.32,SE,125,6.0,7.0,79,0.00,,,0.00,VWS V14.01,2013-01-23 15:50:00,
2013-01-23 09:52:00,55.1,51.9,30.32,East,84,5.0,6.0,89,0.00,,,0.00,VWS V14.01,2013-01-23 15:52:00,
2013-01-23 09:55:00,61.4,54.5,30.32,SSE,149,6.0,9.0,78,0.00,,,0.00,VWS V14.01,2013-01-23 15:55:00,
2013-01-23 09:57:00,55.5,52.0,30.32,East,85,5.0,6.0,88,0.00,,,0.00,VWS V14.01,2013-01-23 15:57:00,
2013-01-23 10:00:00,61.8,55.2,30.32,SE,146,6.0,9.0,79,0.00,,,0.00,VWS V14.01,2013-01-23 16:00:00,
2013-01-23 10:02:00,56.2,52.7,30.32,East,80,4.0,6.0,88,0.00,,,0.00,VWS V14.01,2013-01-23 16:02:00,
2013-01-23 10:05:00,62.2,55.3,30.32,ESE,121,4.0,8.0,78,0.00,,,0.00,VWS V14.01,2013-01-23 16:05:00,
2013-01-23 10:07:00,56.6,52.5,30.32,East,84,4.0,6.0,86,0.00,,,0.00,VWS V14.01,2013-01-23 16:07:00,
2013-01-23 10:10:00,62.4,54.7,30.31,ESE,123,7.0,9.0,76,0.00,,,0.00,VWS V14.01,2013-01-23 16:10:00,
2013-01-23 10:15:00,57.5,53.0,30.33,ESE,106,3.0,7.0,85,0.00,,,0.00,VWS V14.01,2013-01-23 16:15:00,
2013-01-23 10:20:00,57.9,53.4,30.32,ESE,113,3.0,8.0,85,0.00,,,0.00,VWS V14.01,2013-01-23 16:20:00,
2013-01-23 10:25:00,63.4,55.3,30.31,ESE,120,5.0,8.0,75,0.00,,,0.00,VWS V14.01,2013-01-23 16:25:00,
2013-01-23 10:30:00,59.0,53.5,30.32,South,178,3.0,8.0,82,0.00,,,0.00,VWS V14.01,2013-01-23 16:30:00,
2013-01-23 10:35:00,59.5,53.7,30.32,ESE,119,3.0,7.0,81,0.00,,,0.00,VWS V14.01,2013-01-23 16:35:00,
2013-01-23 10:40:00,60.0,54.2,30.32,ESE,123,4.0,7.0,81,0.00,,,0.00,VWS V14.01,2013-01-23 16:40:00,
2013-01-23 10:45:00,60.5,54.3,30.32,ESE,109,5.0,7.0,80,0.00,,,0.00,VWS V14.01,2013-01-23 16:45:00,
2013-01-23 10:50:00,61.2,54.6,30.32,SE,125,6.0,7.0,79,0.00,,,0.00,VWS V14.01,2013-01-23 16:50:00,
2013-01-23 10:55:00,61.4,54.5,30.32,SSE,149,6.0,9.0,78,0.00,,,0.00,VWS V14.01,2013-01-23 16:55:00,
2013-01-23 11:00:00,61.8,55.2,30.32,SE,146,6.0,9.0,79,0.00,,,0.00,VWS V14.01,2013-01-23 17:00:00,
2013-01-23 11:05:00,62.2,55.3,30.32,ESE,121,4.0,8.0,78,0.00,,,0.00,VWS V14.01,2013-01-23 17:05:00,
2013-01-23 11:10:00,62.4,54.8,30.31,ESE,123,7.0,9.0,76,0.00,,,0.00,VWS V14.01,2013-01-23 17:10:00,
2013-01-23 11:15:00,69.1,56.0,30.27,SSW,203,9.0,13.0,63,0.00,,,0.00,VWS V14.01,2013-01-23 17:15:00,
2013-01-23 11:20:00,63.2,55.9,30.31,ESE,113,5.0,8.0,77,0.00,,,0.00,VWS V14.01,2013-01-23 17:20:00,
2013-01-23 11:25:00,63.4,55.3,30.31,ESE,120,5.0,8.0,75,0.00,,,0.00,VWS V14.01,2013-01-23 17:25:00,
2013-01-23 11:30:00,63.9,55.5,30.31,ESE,123,5.0,9.0,74,0.00,,,0.00,VWS V14.01,2013-01-23 17:30:00,
2013-01-23 11:35:00,64.3,55.5,30.30,ESE,123,6.0,8.0,73,0.00,,,0.00,VWS V14.01,2013-01-23 17:35:00,
2013-01-23 11:40:00,70.5,56.0,30.25,SE,139,9.0,12.0,60,0.00,,,0.00,VWS V14.01,2013-01-23 17:40:00,
2013-01-23 11:45:00,65.3,56.0,30.30,ESE,113,7.0,8.0,72,0.00,,,0.00,VWS V14.01,2013-01-23 17:45:00,
2013-01-23 11:50:00,65.8,56.5,30.29,East,95,3.0,8.0,72,0.00,,,0.00,VWS V14.01,2013-01-23 17:50:00,
2013-01-23 11:55:00,71.0,56.4,30.24,SE,135,9.0,10.0,60,0.00,,,0.00,VWS V14.01,2013-01-23 17:55:00,
2013-01-23 12:00:00,67.2,55.5,30.28,SE,132,8.0,12.0,66,0.00,,,0.00,VWS V14.01,2013-01-23 18:00:00,
2013-01-23 12:05:00,68.0,55.8,30.28,South,180,8.0,14.0,65,0.00,,,0.00,VWS V14.01,2013-01-23 18:05:00,
2013-01-23 12:10:00,68.6,55.5,30.27,SSW,199,11.0,13.0,63,0.00,,,0.00,VWS V14.01,2013-01-23 18:10:00,
2013-01-23 12:15:00,69.1,56.0,30.27,SSW,203,9.0,13.0,63,0.00,,,0.00,VWS V14.01,2013-01-23 18:15:00,
2013-01-23 12:20:00,70.6,56.5,30.23,SE,136,6.0,14.0,61,0.00,,,0.00,VWS V14.01,2013-01-23 18:20:00,
2013-01-23 12:25:00,69.9,56.3,30.26,South,174,11.0,11.0,62,0.00,,,0.00,VWS V14.01,2013-01-23 18:25:00,
2013-01-23 12:30:00,70.1,56.0,30.26,SE,140,11.0,13.0,61,0.00,,,0.00,VWS V14.01,2013-01-23 18:30:00,
2013-01-23 12:35:00,71.4,57.3,30.22,SE,146,11.0,11.0,61,0.00,,,0.00,VWS V14.01,2013-01-23 18:35:00,
2013-01-23 12:40:00,70.5,56.0,30.25,SE,139,9.0,12.0,60,0.00,,,0.00,VWS V14.01,2013-01-23 18:40:00,
2013-01-23 12:45:00,70.4,56.3,30.25,WSW,237,7.0,11.0,61,0.00,,,0.00,VWS V14.01,2013-01-23 18:45:00,
2013-01-23 12:50:00,72.2,57.6,30.21,SSE,152,7.0,13.0,60,0.00,,,0.00,VWS V14.01,2013-01-23 18:50:00,
2013-01-23 12:55:00,71.0,56.4,30.24,SE,135,9.0,10.0,60,0.00,,,0.00,VWS V14.01,2013-01-23 18:55:00,
2013-01-23 13:00:00,70.9,56.3,30.24,SSE,154,10.0,14.0,60,0.00,,,0.00,VWS V14.01,2013-01-23 19:00:00,
2013-01-23 13:05:00,72.6,57.5,30.21,South,188,6.0,14.0,59,0.00,,,0.00,VWS V14.01,2013-01-23 19:05:00,
2013-01-23 13:10:00,70.9,56.8,30.23,SSE,154,4.0,9.0,61,0.00,,,0.00,VWS V14.01,2013-01-23 19:10:00,
2013-01-23 13:15:00,72.4,57.8,30.20,SSW,210,8.0,14.0,60,0.00,,,0.00,VWS V14.01,2013-01-23 19:15:00,
2013-01-23 13:20:00,70.6,56.5,30.23,SE,136,6.0,14.0,61,0.00,,,0.00,VWS V14.01,2013-01-23 19:20:00,
2013-01-23 13:25:00,72.8,58.1,30.20,SSW,213,12.0,15.0,60,0.00,,,0.00,VWS V14.01,2013-01-23 19:25:00,
2013-01-23 13:30:00,71.2,57.1,30.22,SSE,162,9.0,15.0,61,0.00,,,0.00,VWS V14.01,2013-01-23 19:30:00,
2013-01-23 13:35:00,72.3,57.7,30.20,SW,215,10.0,11.0,60,0.00,,,0.00,VWS V14.01,2013-01-23 19:35:00,
2013-01-23 13:40:00,71.8,57.2,30.22,South,181,9.0,13.0,60,0.00,,,0.00,VWS V14.01,2013-01-23 19:40:00,
2013-01-23 13:45:00,71.8,57.2,30.22,SSE,161,6.0,10.0,60,0.00,,,0.00,VWS V14.01,2013-01-23 19:45:00,
2013-01-23 13:50:00,72.2,57.6,30.21,SSE,152,7.0,13.0,60,0.00,,,0.00,VWS V14.01,2013-01-23 19:50:00,
2013-01-23 13:55:00,72.3,57.2,30.21,South,182,6.0,11.0,59,0.00,,,0.00,VWS V14.01,2013-01-23 19:55:00,
2013-01-23 14:00:00,71.9,57.7,30.21,SSW,199,10.0,15.0,61,0.00,,,0.00,VWS V14.01,2013-01-23 20:00:00,
2013-01-23 14:05:00,72.1,57.5,30.19,South,188,9.0,14.0,60,0.00,,,0.00,VWS V14.01,2013-01-23 20:05:00,
2013-01-23 14:10:00,72.1,57.5,30.21,South,172,7.0,12.0,60,0.00,,,0.00,VWS V14.01,2013-01-23 20:10:00,
2013-01-23 14:15:00,72.0,57.4,30.19,SSE,160,7.0,13.0,60,0.00,,,0.00,VWS V14.01,2013-01-23 20:15:00,
2013-01-23 14:20:00,72.6,57.9,30.20,SSW,201,14.0,15.0,60,0.00,,,0.00,VWS V14.01,2013-01-23 20:20:00,
2013-01-23 14:25:00,72.8,58.1,30.20,SSW,213,12.0,15.0,60,0.00,,,0.00,VWS V14.01,2013-01-23 20:25:00,
2013-01-23 14:30:00,72.3,57.7,30.20,South,191,6.0,14.0,60,0.00,,,0.00,VWS V14.01,2013-01-23 20:30:00,
2013-01-23 14:35:00,72.8,57.2,30.18,SE,143,5.0,13.0,58,0.00,,,0.00,VWS V14.01,2013-01-23 20:35:00,
2013-01-23 14:40:00,72.3,57.7,30.20,SSW,194,7.0,15.0,60,0.00,,,0.00,VWS V14.01,2013-01-23 20:40:00,
2013-01-23 14:45:00,72.4,57.8,30.19,SW,222,9.0,14.0,60,0.00,,,0.00,VWS V14.01,2013-01-23 20:45:00,
2013-01-23 14:50:00,72.8,57.7,30.19,SSE,164,9.0,14.0,59,0.00,,,0.00,VWS V14.01,2013-01-23 20:50:00,
2013-01-23 14:55:00,72.7,58.0,30.19,South,184,5.0,9.0,60,0.00,,,0.00,VWS V14.01,2013-01-23 20:55:00,
2013-01-23 15:00:00,72.2,57.1,30.19,SSW,210,5.0,12.0,59,0.00,,,0.00,VWS V14.01,2013-01-23 21:00:00,
2013-01-23 15:05:00,73.2,57.5,30.18,SE,144,3.0,11.0,58,0.00,,,0.00,VWS V14.01,2013-01-23 21:05:00,
2013-01-23 15:10:00,72.0,57.4,30.19,South,177,6.0,13.0,60,0.00,,,0.00,VWS V14.01,2013-01-23 21:10:00,
2013-01-23 15:15:00,72.0,57.4,30.19,SSE,160,7.0,13.0,60,0.00,,,0.00,VWS V14.01,2013-01-23 21:15:00,
2013-01-23 15:20:00,72.0,57.4,30.19,South,188,3.0,11.0,60,0.00,,,0.00,VWS V14.01,2013-01-23 21:20:00,
2013-01-23 15:25:00,72.8,57.7,30.19,SSW,213,10.0,10.0,59,0.00,,,0.00,VWS V14.01,2013-01-23 21:25:00,
2013-01-23 15:30:00,73.1,57.5,30.19,SSW,213,7.0,13.0,58,0.00,,,0.00,VWS V14.01,2013-01-23 21:30:00,
2013-01-23 15:35:00,72.8,57.2,30.18,SE,143,5.0,13.0,58,0.00,,,0.00,VWS V14.01,2013-01-23 21:35:00,
2013-01-23 15:40:00,72.9,57.3,30.18,SSW,203,7.0,11.0,58,0.00,,,0.00,VWS V14.01,2013-01-23 21:40:00,
2013-01-23 15:45:00,73.1,57.0,30.19,South,187,10.0,13.0,57,0.00,,,0.00,VWS V14.01,2013-01-23 21:45:00,
2013-01-23 15:50:00,72.9,56.8,30.19,SW,215,6.0,11.0,57,0.00,,,0.00,VWS V14.01,2013-01-23 21:50:00,
2013-01-23 15:55:00,73.2,57.1,30.17,South,178,4.0,7.0,57,0.00,,,0.00,VWS V14.01,2013-01-23 21:55:00,
2013-01-23 16:00:00,73.2,57.1,30.18,SSW,201,5.0,9.0,57,0.00,,,0.00,VWS V14.01,2013-01-23 22:00:00,
2013-01-23 16:05:00,73.0,56.9,30.17,South,187,6.0,8.0,57,0.00,,,0.00,VWS V14.01,2013-01-23 22:05:00,
2013-01-23 16:10:00,73.2,57.1,30.18,SSE,167,5.0,12.0,57,0.00,,,0.00,VWS V14.01,2013-01-23 22:10:00,
2013-01-23 16:15:00,72.8,56.7,30.17,SSE,165,5.0,8.0,57,0.00,,,0.00,VWS V14.01,2013-01-23 22:15:00,
2013-01-23 16:20:00,73.2,57.1,30.18,SSW,200,7.0,11.0,57,0.00,,,0.00,VWS V14.01,2013-01-23 22:20:00,
2013-01-23 16:25:00,73.2,57.1,30.19,SSE,156,5.0,12.0,57,0.00,,,0.00,VWS V14.01,2013-01-23 22:25:00,
2013-01-23 16:30:00,73.2,56.6,30.19,SSE,163,4.0,11.0,56,0.00,,,0.00,VWS V14.01,2013-01-23 22:30:00,
2013-01-23 16:35:00,73.2,57.1,30.19,SSW,208,7.0,9.0,57,0.00,,,0.00,VWS V14.01,2013-01-23 22:35:00,
2013-01-23 16:40:00,71.8,56.7,30.17,South,189,3.0,9.0,59,0.00,,,0.00,VWS V14.01,2013-01-23 22:40:00,
2013-01-23 16:45:00,73.3,57.2,30.18,SW,223,6.0,9.0,57,0.00,,,0.00,VWS V14.01,2013-01-23 22:45:00,
2013-01-23 16:50:00,73.3,56.7,30.17,South,185,6.0,9.0,56,0.00,,,0.00,VWS V14.01,2013-01-23 22:50:00,
2013-01-23 16:55:00,73.2,57.1,30.17,South,178,4.0,7.0,57,0.00,,,0.00,VWS V14.01,2013-01-23 22:55:00,
2013-01-23 17:00:00,73.1,57.0,30.17,South,187,6.0,7.0,57,0.00,,,0.00,VWS V14.01,2013-01-23 23:00:00,
2013-01-23 17:05:00,70.3,56.7,30.17,SE,142,1.0,4.0,62,0.00,,,0.00,VWS V14.01,2013-01-23 23:05:00,
2013-01-23 17:10:00,72.9,56.8,30.17,SSW,198,6.0,10.0,57,0.00,,,0.00,VWS V14.01,2013-01-23 23:10:00,
2013-01-23 17:15:00,72.8,56.7,30.17,SSE,165,5.0,8.0,57,0.00,,,0.00,VWS V14.01,2013-01-23 23:15:00,
2013-01-23 17:20:00,72.7,57.1,30.17,SSE,157,3.0,11.0,58,0.00,,,0.00,VWS V14.01,2013-01-23 23:20:00,
2013-01-23 17:25:00,72.5,56.9,30.17,South,188,3.0,7.0,58,0.00,,,0.00,VWS V14.01,2013-01-23 23:25:00,
2013-01-23 17:30:00,72.3,56.7,30.17,South,181,6.0,7.0,58,0.00,,,0.00,VWS V14.01,2013-01-23 23:30:00,
2013-01-23 17:35:00,72.0,56.4,30.17,South,184,4.0,6.0,58,0.00,,,0.00,VWS V14.01,2013-01-23 23:35:00,
2013-01-23 17:40:00,71.8,56.7,30.17,South,189,3.0,9.0,59,0.00,,,0.00,VWS V14.01,2013-01-23 23:40:00,
2013-01-23 17:45:00,71.6,56.5,30.17,SSE,168,4.0,6.0,59,0.00,,,0.00,VWS V14.01,2013-01-23 23:45:00,
2013-01-23 17:50:00,71.3,56.7,30.17,South,174,3.0,4.0,60,0.00,,,0.00,VWS V14.01,2013-01-23 23:50:00,
2013-01-23 17:55:00,71.0,56.9,30.17,South,191,1.0,3.0,61,0.00,,,0.00,VWS V14.01,2013-01-23 23:55:00,
2013-01-23 18:00:00,70.6,56.5,30.17,SSE,152,1.0,5.0,61,0.00,,,0.00,VWS V14.01,2013-01-24 00:00:00,
2013-01-23 18:05:00,66.2,55.3,30.18,ESE,108,1.0,1.0,68,0.00,,,0.00,VWS V14.01,2013-01-24 00:05:00,
2013-01-23 18:10:00,69.9,56.3,30.17,SE,142,2.0,3.0,62,0.00,,,0.00,VWS V14.01,2013-01-24 00:10:00,
2013-01-23 18:15:00,69.6,56.5,30.17,SSE,152,2.0,4.0,63,0.00,,,0.00,VWS V14.01,2013-01-24 00:15:00,
2013-01-23 18:20:00,69.3,56.2,30.18,SSE,160,2.0,3.0,63,0.00,,,0.00,VWS V14.01,2013-01-24 00:20:00,
2013-01-23 18:25:00,69.0,56.3,30.17,SE,137,1.0,2.0,64,0.00,,,0.00,VWS V14.01,2013-01-24 00:25:00,
2013-01-23 18:30:00,68.7,56.0,30.17,SSE,149,1.0,3.0,64,0.00,,,0.00,VWS V14.01,2013-01-24 00:30:00,
2013-01-23 18:35:00,68.4,56.2,30.17,SSE,149,1.0,3.0,65,0.00,,,0.00,VWS V14.01,2013-01-24 00:35:00,
2013-01-23 18:40:00,68.1,55.9,30.17,SE,142,1.0,2.0,65,0.00,,,0.00,VWS V14.01,2013-01-24 00:40:00,
2013-01-23 18:45:00,67.7,56.0,30.17,SE,135,1.0,2.0,66,0.00,,,0.00,VWS V14.01,2013-01-24 00:45:00,
2013-01-23 18:50:00,67.3,56.0,30.18,ESE,116,1.0,1.0,67,0.00,,,0.00,VWS V14.01,2013-01-24 00:50:00,
2013-01-23 18:55:00,67.1,55.8,30.18,ESE,108,2.0,3.0,67,0.00,,,0.00,VWS V14.01,2013-01-24 00:55:00,
2013-01-23 19:00:00,66.7,55.8,30.18,ESE,108,1.0,2.0,68,0.00,,,0.00,VWS V14.01,2013-01-24 01:00:00,
2013-01-23 19:05:00,66.2,55.3,30.18,ESE,108,1.0,1.0,68,0.00,,,0.00,VWS V14.01,2013-01-24 01:05:00,
2013-01-23 19:10:00,65.6,55.2,30.18,ESE,108,0.0,1.0,69,0.00,,,0.00,VWS V14.01,2013-01-24 01:10:00,
2013-01-23 19:15:00,64.9,54.9,30.18,ESE,108,0.0,1.0,70,0.00,,,0.00,VWS V14.01,2013-01-24 01:15:00,
2013-01-23 19:20:00,64.5,55.3,30.18,ESE,108,0.0,1.0,72,0.00,,,0.00,VWS V14.01,2013-01-24 01:20:00,
2013-01-23 19:25:00,64.2,55.0,30.18,ESE,106,0.0,1.0,72,0.00,,,0.00,VWS V14.01,2013-01-24 01:25:00,
2013-01-23 19:30:00,63.8,55.0,30.18,ESE,106,0.0,1.0,73,0.00,,,0.00,VWS V14.01,2013-01-24 01:30:00,
2013-01-23 19:35:00,63.4,55.0,30.18,ESE,106,0.0,1.0,74,0.00,,,0.00,VWS V14.01,2013-01-24 01:35:00,
2013-01-23 19:40:00,63.3,54.9,30.18,ESE,106,0.0,2.0,74,0.00,,,0.00,VWS V14.01,2013-01-24 01:40:00,
2013-01-23 19:45:00,62.9,54.5,30.18,ESE,106,1.0,1.0,74,0.00,,,0.00,VWS V14.01,2013-01-24 01:45:00,
2013-01-23 19:50:00,57.9,53.1,30.20,East,81,0.0,0.0,84,0.00,,,0.00,VWS V14.01,2013-01-24 01:50:00,
2013-01-23 19:55:00,62.8,55.1,30.19,East,98,1.0,1.0,76,0.00,,,0.00,VWS V14.01,2013-01-24 01:55:00,
2013-01-23 20:00:00,62.7,54.7,30.19,East,96,0.0,1.0,75,0.00,,,0.00,VWS V14.01,2013-01-24 02:00:00,
2013-01-23 20:05:00,62.2,54.2,30.19,East,97,0.0,0.0,75,0.00,,,0.00,VWS V14.01,2013-01-24 02:05:00,
2013-01-23 20:10:00,61.3,54.0,30.19,East,97,0.0,0.0,77,0.00,,,0.00,VWS V14.01,2013-01-24 02:10:00,
2013-01-23 20:15:00,60.8,53.9,30.19,East,97,0.0,0.0,78,0.00,,,0.00,VWS V14.01,2013-01-24 02:15:00,
2013-01-23 20:20:00,56.6,51.8,30.21,East,81,0.0,0.0,84,0.00,,,0.00,VWS V14.01,2013-01-24 02:20:00,
2013-01-23 20:25:00,60.5,54.0,30.19,East,96,0.0,0.0,79,0.00,,,0.00,VWS V14.01,2013-01-24 02:25:00,
2013-01-23 20:30:00,59.9,53.4,30.19,East,96,0.0,0.0,79,0.00,,,0.00,VWS V14.01,2013-01-24 02:30:00,
2013-01-23 20:35:00,59.1,52.9,30.19,East,97,0.0,0.0,80,0.00,,,0.00,VWS V14.01,2013-01-24 02:35:00,
2013-01-23 20:40:00,54.6,50.8,30.21,East,80,0.0,0.0,87,0.00,,,0.00,VWS V14.01,2013-01-24 02:40:00,
2013-01-23 20:45:00,57.9,52.8,30.20,East,97,0.0,0.0,83,0.00,,,0.00,VWS V14.01,2013-01-24 02:45:00,
2013-01-23 20:50:00,57.9,53.1,30.20,East,81,0.0,0.0,84,0.00,,,0.00,VWS V14.01,2013-01-24 02:50:00,
2013-01-23 20:55:00,58.6,53.8,30.20,East,81,0.0,0.0,84,0.00,,,0.00,VWS V14.01,2013-01-24 02:55:00,
2013-01-23 21:00:00,59.0,53.8,30.20,East,81,0.0,0.0,83,0.00,,,0.00,VWS V14.01,2013-01-24 03:00:00,
2013-01-23 21:05:00,58.6,53.1,30.20,East,81,0.0,0.0,82,0.00,,,0.00,VWS V14.01,2013-01-24 03:05:00,
2013-01-23 21:10:00,57.9,52.5,30.21,East,81,0.0,0.0,82,0.00,,,0.00,VWS V14.01,2013-01-24 03:10:00,
2013-01-23 21:15:00,57.3,52.2,30.21,East,80,0.0,0.0,83,0.00,,,0.00,VWS V14.01,2013-01-24 03:15:00,
2013-01-23 21:20:00,56.6,51.8,30.21,East,81,0.0,0.0,84,0.00,,,0.00,VWS V14.01,2013-01-24 03:20:00,
2013-01-23 21:25:00,55.9,51.1,30.20,East,81,0.0,0.0,84,0.00,,,0.00,VWS V14.01,2013-01-24 03:25:00,
2013-01-23 21:30:00,55.1,51.0,30.21,East,81,0.0,1.0,86,0.00,,,0.00,VWS V14.01,2013-01-24 03:30:00,
2013-01-23 21:35:00,54.6,50.5,30.21,East,81,0.0,0.0,86,0.00,,,0.00,VWS V14.01,2013-01-24 03:35:00,
2013-01-23 21:40:00,54.6,50.8,30.21,East,80,0.0,0.0,87,0.00,,,0.00,VWS V14.01,2013-01-24 03:40:00,
2013-01-23 21:45:00,54.1,50.3,30.21,East,81,0.0,0.0,87,0.00,,,0.00,VWS V14.01,2013-01-24 03:45:00,
2013-01-23 21:50:00,53.5,49.7,30.20,East,81,0.0,0.0,87,0.00,,,0.00,VWS V14.01,2013-01-24 03:50:00,
2013-01-23 21:55:00,53.5,50.0,30.20,East,81,0.0,0.0,88,0.00,,,0.00,VWS V14.01,2013-01-24 03:55:00,
2013-01-23 22:00:00,53.8,50.3,30.20,East,81,0.0,0.0,88,0.00,,,0.00,VWS V14.01,2013-01-24 04:00:00,
2013-01-23 22:05:00,53.8,50.3,30.20,East,81,0.0,0.0,88,0.00,,,0.00,VWS V14.01,2013-01-24 04:05:00,
2013-01-23 22:10:00,54.0,50.5,30.20,East,81,0.0,0.0,88,0.00,,,0.00,VWS V14.01,2013-01-24 04:10:00,
2013-01-23 22:15:00,54.4,51.2,30.20,East,81,0.0,0.0,89,0.00,,,0.00,VWS V14.01,2013-01-24 04:15:00,
2013-01-23 22:20:00,54.6,51.1,30.20,East,81,0.0,0.0,88,0.00,,,0.00,VWS V14.01,2013-01-24 04:20:00,
2013-01-23 22:25:00,54.7,51.5,30.20,East,81,0.0,0.0,89,0.00,,,0.00,VWS V14.01,2013-01-24 04:25:00,
2013-01-23 22:30:00,55.1,51.9,30.20,East,81,0.0,0.0,89,0.00,,,0.00,VWS V14.01,2013-01-24 04:30:00,
2013-01-23 22:35:00,55.7,52.5,30.20,East,81,0.0,0.0,89,0.00,,,0.00,VWS V14.01,2013-01-24 04:35:00,
2013-01-23 22:40:00,55.9,52.4,30.20,East,81,0.0,0.0,88,0.00,,,0.00,VWS V14.01,2013-01-24 04:40:00,
2013-01-23 22:45:00,55.8,52.3,30.20,East,81,0.0,0.0,88,0.00,,,0.00,VWS V14.01,2013-01-24 04:45:00,
2013-01-23 22:50:00,55.7,52.2,30.20,East,82,0.0,0.0,88,0.00,,,0.00,VWS V14.01,2013-01-24 04:50:00,
2013-01-23 22:55:00,55.6,52.1,30.20,East,81,0.0,0.0,88,0.00,,,0.00,VWS V14.01,2013-01-24 04:55:00,
2013-01-23 23:00:00,55.4,51.9,30.20,East,81,0.0,0.0,88,0.00,,,0.00,VWS V14.01,2013-01-24 05:00:00,
2013-01-23 23:05:00,55.3,51.8,30.20,East,81,0.0,0.0,88,0.00,,,0.00,VWS V14.01,2013-01-24 05:05:00,
2013-01-23 23:10:00,55.7,52.5,30.20,East,81,0.0,0.0,89,0.00,,,0.00,VWS V14.01,2013-01-24 05:10:00,
2013-01-23 23:15:00,56.1,52.9,30.20,East,81,0.0,0.0,89,0.00,,,0.00,VWS V14.01,2013-01-24 05:15:00,
2013-01-23 23:20:00,55.4,51.6,30.20,East,81,0.0,0.0,87,0.00,,,0.00,VWS V14.01,2013-01-24 05:20:00,
2013-01-23 23:25:00,54.5,51.0,30.20,East,81,0.0,0.0,88,0.00,,,0.00,VWS V14.01,2013-01-24 05:25:00,
2013-01-23 23:30:00,53.3,49.5,30.20,East,81,0.0,0.0,87,0.00,,,0.00,VWS V14.01,2013-01-24 05:30:00,
2013-01-23 23:35:00,52.7,49.2,30.20,East,81,0.0,0.0,88,0.00,,,0.00,VWS V14.01,2013-01-24 05:35:00,
2013-01-23 23:40:00,51.4,47.7,30.20,East,81,0.0,0.0,87,0.00,,,0.00,VWS V14.01,2013-01-24 05:40:00,
2013-01-23 23:45:00,51.9,49.1,30.20,East,81,0.0,0.0,90,0.00,,,0.00,VWS V14.01,2013-01-24 05:45:00,
2013-01-23 23:50:00,52.2,49.4,30.20,East,81,0.0,0.0,90,0.00,,,0.00,VWS V14.01,2013-01-24 05:50:00,
2013-01-23 23:55:00,53.6,51.3,30.20,East,81,0.0,0.0,92,0.00,,,0.00,VWS V14.01,2013-01-24 05:55:00,